sensor_id;sensor_type;location;lat;lon;timestamp;temperature;humidity
2767;DHT22;1391;46.742;11.636;2022-12-18T00:01:15;-3.00;98.90
2767;DHT22;1391;46.742;11.636;2022-12-18T00:03:45;-3.30;99.10
2767;DHT22;1391;46.742;11.636;2022-12-18T00:06:13;-3.60;98.10
2767;DHT22;1391;46.742;11.636;2022-12-18T00:08:40;-3.60;98.50
2767;DHT22;1391;46.742;11.636;2022-12-18T00:11:11;-3.40;98.10
2767;DHT22;1391;46.742;11.636;2022-12-18T00:13:39;-3.80;97.40
2767;DHT22;1391;46.742;11.636;2022-12-18T00:16:10;-3.90;98.20
2767;DHT22;1391;46.742;11.636;2022-12-18T00:18:38;-4.20;97.90
2767;DHT22;1391;46.742;11.636;2022-12-18T00:21:09;-4.10;98.80
2767;DHT22;1391;46.742;11.636;2022-12-18T00:23:38;-3.50;99.90
2767;DHT22;1391;46.742;11.636;2022-12-18T00:26:08;-3.70;99.90
2767;DHT22;1391;46.742;11.636;2022-12-18T00:28:42;-3.40;99.90
2767;DHT22;1391;46.742;11.636;2022-12-18T00:31:12;-3.60;99.90
2767;DHT22;1391;46.742;11.636;2022-12-18T00:33:41;-3.60;99.90
2767;DHT22;1391;46.742;11.636;2022-12-18T00:36:10;-3.60;99.90
2767;DHT22;1391;46.742;11.636;2022-12-18T00:38:39;-3.80;99.90
2767;DHT22;1391;46.742;11.636;2022-12-18T00:41:08;-3.60;99.90
2767;DHT22;1391;46.742;11.636;2022-12-18T00:43:39;-3.70;99.60
2767;DHT22;1391;46.742;11.636;2022-12-18T00:46:07;-4.20;97.90
2767;DHT22;1391;46.742;11.636;2022-12-18T00:48:35;-4.10;97.70
2767;DHT22;1391;46.742;11.636;2022-12-18T00:51:03;-4.20;97.80
2767;DHT22;1391;46.742;11.636;2022-12-18T00:53:30;-4.00;98.30
2767;DHT22;1391;46.742;11.636;2022-12-18T00:55:57;-4.10;98.70
2767;DHT22;1391;46.742;11.636;2022-12-18T00:58:24;-4.00;99.40
2767;DHT22;1391;46.742;11.636;2022-12-18T01:00:54;-4.00;97.90
2767;DHT22;1391;46.742;11.636;2022-12-18T01:03:24;-3.80;95.40
2767;DHT22;1391;46.742;11.636;2022-12-18T01:05:53;-3.60;96.20
2767;DHT22;1391;46.742;11.636;2022-12-18T01:08:22;-3.40;94.90
2767;DHT22;1391;46.742;11.636;2022-12-18T01:10:52;-3.80;95.10
2767;DHT22;1391;46.742;11.636;2022-12-18T01:13:20;-3.60;96.90
2767;DHT22;1391;46.742;11.636;2022-12-18T01:15:48;-3.50;97.40
2767;DHT22;1391;46.742;11.636;2022-12-18T01:18:16;-3.60;98.10
2767;DHT22;1391;46.742;11.636;2022-12-18T01:20:43;-3.60;98.30
2767;DHT22;1391;46.742;11.636;2022-12-18T01:23:12;-3.40;98.80
2767;DHT22;1391;46.742;11.636;2022-12-18T01:25:39;-3.40;98.60
2767;DHT22;1391;46.742;11.636;2022-12-18T01:28:06;-4.00;97.50
2767;DHT22;1391;46.742;11.636;2022-12-18T01:30:33;-3.80;98.30
2767;DHT22;1391;46.742;11.636;2022-12-18T01:33:00;-3.60;98.00
2767;DHT22;1391;46.742;11.636;2022-12-18T01:35:28;-4.00;97.30
2767;DHT22;1391;46.742;11.636;2022-12-18T01:37:55;-3.80;99.40
2767;DHT22;1391;46.742;11.636;2022-12-18T01:40:24;-3.70;99.70
2767;DHT22;1391;46.742;11.636;2022-12-18T01:42:51;-3.90;98.10
2767;DHT22;1391;46.742;11.636;2022-12-18T01:45:25;-4.40;98.40
2767;DHT22;1391;46.742;11.636;2022-12-18T01:47:55;-4.50;97.70
2767;DHT22;1391;46.742;11.636;2022-12-18T01:50:27;-4.30;98.70
2767;DHT22;1391;46.742;11.636;2022-12-18T01:52:59;-4.60;98.40
2767;DHT22;1391;46.742;11.636;2022-12-18T01:55:36;-4.50;99.50
2767;DHT22;1391;46.742;11.636;2022-12-18T01:58:05;-4.00;99.90
2767;DHT22;1391;46.742;11.636;2022-12-18T02:00:32;-4.30;99.90
2767;DHT22;1391;46.742;11.636;2022-12-18T02:03:00;-4.10;99.90
2767;DHT22;1391;46.742;11.636;2022-12-18T02:05:44;-4.90;97.80
2767;DHT22;1391;46.742;11.636;2022-12-18T02:08:16;-5.20;98.20
2767;DHT22;1391;46.742;11.636;2022-12-18T02:10:54;-4.90;98.80
2767;DHT22;1391;46.742;11.636;2022-12-18T02:13:30;-4.60;99.90
2767;DHT22;1391;46.742;11.636;2022-12-18T02:16:05;-4.90;98.40
2767;DHT22;1391;46.742;11.636;2022-12-18T02:18:40;-5.10;99.50
2767;DHT22;1391;46.742;11.636;2022-12-18T02:21:15;-4.90;99.70
2767;DHT22;1391;46.742;11.636;2022-12-18T02:23:56;-4.90;99.90
2767;DHT22;1391;46.742;11.636;2022-12-18T02:26:35;-4.80;99.90
2767;DHT22;1391;46.742;11.636;2022-12-18T04:40:16;-4.20;91.90
2767;DHT22;1391;46.742;11.636;2022-12-18T04:42:44;-4.30;91.40
2767;DHT22;1391;46.742;11.636;2022-12-18T04:45:11;-4.30;91.60
2767;DHT22;1391;46.742;11.636;2022-12-18T04:47:38;-4.30;91.70
2767;DHT22;1391;46.742;11.636;2022-12-18T04:50:06;-4.40;92.60
2767;DHT22;1391;46.742;11.636;2022-12-18T04:52:34;-4.50;92.90
2767;DHT22;1391;46.742;11.636;2022-12-18T04:55:01;-4.30;94.00
2767;DHT22;1391;46.742;11.636;2022-12-18T04:57:30;-4.60;92.10
2767;DHT22;1391;46.742;11.636;2022-12-18T04:59:57;-4.30;93.60
2767;DHT22;1391;46.742;11.636;2022-12-18T05:02:24;-4.40;93.80
2767;DHT22;1391;46.742;11.636;2022-12-18T05:04:51;-4.50;93.00
2767;DHT22;1391;46.742;11.636;2022-12-18T05:07:19;-4.50;93.30
2767;DHT22;1391;46.742;11.636;2022-12-18T05:09:46;-4.50;94.00
2767;DHT22;1391;46.742;11.636;2022-12-18T05:12:13;-4.60;93.40
2767;DHT22;1391;46.742;11.636;2022-12-18T05:14:42;-4.60;93.80
2767;DHT22;1391;46.742;11.636;2022-12-18T05:17:09;-4.60;94.60
2767;DHT22;1391;46.742;11.636;2022-12-18T05:19:39;-4.60;94.90
2767;DHT22;1391;46.742;11.636;2022-12-18T05:22:18;-4.80;94.00
2767;DHT22;1391;46.742;11.636;2022-12-18T05:24:45;-4.70;95.10
2767;DHT22;1391;46.742;11.636;2022-12-18T05:27:12;-5.00;95.50
2767;DHT22;1391;46.742;11.636;2022-12-18T05:29:39;-4.70;94.90
2767;DHT22;1391;46.742;11.636;2022-12-18T05:32:08;-5.00;94.70
2767;DHT22;1391;46.742;11.636;2022-12-18T05:34:35;-4.50;95.90
2767;DHT22;1391;46.742;11.636;2022-12-18T05:37:03;-4.50;96.30
2767;DHT22;1391;46.742;11.636;2022-12-18T05:39:30;-4.80;95.10
2767;DHT22;1391;46.742;11.636;2022-12-18T05:41:57;-4.70;95.30
2767;DHT22;1391;46.742;11.636;2022-12-18T05:44:24;-4.90;94.30
2767;DHT22;1391;46.742;11.636;2022-12-18T05:46:54;-4.70;93.50
2767;DHT22;1391;46.742;11.636;2022-12-18T05:49:21;-4.90;93.20
2767;DHT22;1391;46.742;11.636;2022-12-18T05:51:48;-4.90;92.80
2767;DHT22;1391;46.742;11.636;2022-12-18T05:54:15;-4.90;93.50
2767;DHT22;1391;46.742;11.636;2022-12-18T05:56:43;-4.60;93.90
2767;DHT22;1391;46.742;11.636;2022-12-18T05:59:10;-4.60;93.80
2767;DHT22;1391;46.742;11.636;2022-12-18T06:01:37;-4.80;93.00
2767;DHT22;1391;46.742;11.636;2022-12-18T06:04:06;-4.90;92.80
2767;DHT22;1391;46.742;11.636;2022-12-18T06:06:33;-4.80;93.20
2767;DHT22;1391;46.742;11.636;2022-12-18T06:09:00;-5.20;93.90
2767;DHT22;1391;46.742;11.636;2022-12-18T06:11:34;-4.70;94.70
2767;DHT22;1391;46.742;11.636;2022-12-18T06:14:03;-4.80;94.60
2767;DHT22;1391;46.742;11.636;2022-12-18T06:16:31;-5.20;93.50
2767;DHT22;1391;46.742;11.636;2022-12-18T06:19:00;-5.10;93.50
2767;DHT22;1391;46.742;11.636;2022-12-18T06:21:31;-5.20;93.30
2767;DHT22;1391;46.742;11.636;2022-12-18T06:40:56;-5.10;94.00
2767;DHT22;1391;46.742;11.636;2022-12-18T06:43:24;-4.80;95.00
2767;DHT22;1391;46.742;11.636;2022-12-18T06:45:57;-5.30;92.90
2767;DHT22;1391;46.742;11.636;2022-12-18T07:17:00;-5.20;90.60
2767;DHT22;1391;46.742;11.636;2022-12-18T07:19:29;-4.90;92.10
2767;DHT22;1391;46.742;11.636;2022-12-18T09:49:37;0.70;56.60
2767;DHT22;1391;46.742;11.636;2022-12-18T09:52:13;0.50;55.90
2767;DHT22;1391;46.742;11.636;2022-12-18T09:54:45;0.40;58.20
2767;DHT22;1391;46.742;11.636;2022-12-18T09:57:18;0.30;57.80
2767;DHT22;1391;46.742;11.636;2022-12-18T09:59:50;0.50;57.40
2767;DHT22;1391;46.742;11.636;2022-12-18T10:02:22;-0.20;56.10
2767;DHT22;1391;46.742;11.636;2022-12-18T10:05:02;0.30;59.70
2767;DHT22;1391;46.742;11.636;2022-12-18T10:07:40;0.50;55.90
2767;DHT22;1391;46.742;11.636;2022-12-18T10:10:30;0.60;58.60
2767;DHT22;1391;46.742;11.636;2022-12-18T10:13:08;0.30;55.90
2767;DHT22;1391;46.742;11.636;2022-12-18T10:15:48;-0.20;56.30
2767;DHT22;1391;46.742;11.636;2022-12-18T10:18:31;-0.20;57.90
2767;DHT22;1391;46.742;11.636;2022-12-18T10:21:23;0.40;58.40
2767;DHT22;1391;46.742;11.636;2022-12-18T10:24:01;0.20;60.50
2767;DHT22;1391;46.742;11.636;2022-12-18T10:26:35;0.00;59.60
2767;DHT22;1391;46.742;11.636;2022-12-18T10:29:08;0.20;58.40
2767;DHT22;1391;46.742;11.636;2022-12-18T10:31:37;0.30;58.10
2767;DHT22;1391;46.742;11.636;2022-12-18T10:34:07;0.80;59.20
2767;DHT22;1391;46.742;11.636;2022-12-18T10:36:37;0.80;58.00
2767;DHT22;1391;46.742;11.636;2022-12-18T10:39:16;0.80;56.90
2767;DHT22;1391;46.742;11.636;2022-12-18T10:41:44;0.80;55.40
2767;DHT22;1391;46.742;11.636;2022-12-18T10:44:22;1.00;56.60
2767;DHT22;1391;46.742;11.636;2022-12-18T10:46:54;0.90;55.10
2767;DHT22;1391;46.742;11.636;2022-12-18T10:49:24;0.90;56.40
2767;DHT22;1391;46.742;11.636;2022-12-18T10:52:07;1.10;55.50
2767;DHT22;1391;46.742;11.636;2022-12-18T10:54:38;1.10;55.50
2767;DHT22;1391;46.742;11.636;2022-12-18T10:57:29;1.10;58.50
2767;DHT22;1391;46.742;11.636;2022-12-18T11:00:01;1.10;55.30
2767;DHT22;1391;46.742;11.636;2022-12-18T11:02:47;1.10;54.10
2767;DHT22;1391;46.742;11.636;2022-12-18T11:05:29;1.10;54.40
2767;DHT22;1391;46.742;11.636;2022-12-18T11:08:00;1.10;53.70
2767;DHT22;1391;46.742;11.636;2022-12-18T11:10:30;1.10;53.50
2767;DHT22;1391;46.742;11.636;2022-12-18T11:13:10;1.30;59.40
2767;DHT22;1391;46.742;11.636;2022-12-18T11:15:40;1.50;60.00
2767;DHT22;1391;46.742;11.636;2022-12-18T11:18:16;1.90;61.00
2767;DHT22;1391;46.742;11.636;2022-12-18T11:20:51;1.90;60.70
2767;DHT22;1391;46.742;11.636;2022-12-18T11:23:21;2.10;60.80
2767;DHT22;1391;46.742;11.636;2022-12-18T11:25:52;2.20;60.80
2767;DHT22;1391;46.742;11.636;2022-12-18T11:28:39;2.40;60.40
2767;DHT22;1391;46.742;11.636;2022-12-18T11:31:23;2.20;59.30
2767;DHT22;1391;46.742;11.636;2022-12-18T11:34:01;2.20;60.50
2767;DHT22;1391;46.742;11.636;2022-12-18T11:36:34;1.90;60.30
2767;DHT22;1391;46.742;11.636;2022-12-18T11:39:14;2.00;60.40
2767;DHT22;1391;46.742;11.636;2022-12-18T11:41:50;1.70;60.60
2767;DHT22;1391;46.742;11.636;2022-12-18T11:44:44;2.10;61.80
2767;DHT22;1391;46.742;11.636;2022-12-18T11:47:21;1.80;61.40
2767;DHT22;1391;46.742;11.636;2022-12-18T11:49:53;2.10;62.00
2767;DHT22;1391;46.742;11.636;2022-12-18T11:52:24;1.90;63.20
2767;DHT22;1391;46.742;11.636;2022-12-18T11:54:58;2.00;62.00
2767;DHT22;1391;46.742;11.636;2022-12-18T11:57:36;2.00;61.80
2767;DHT22;1391;46.742;11.636;2022-12-18T12:00:13;1.90;62.30
2767;DHT22;1391;46.742;11.636;2022-12-18T12:02:55;2.00;62.50
2767;DHT22;1391;46.742;11.636;2022-12-18T12:05:41;1.50;63.20
2767;DHT22;1391;46.742;11.636;2022-12-18T12:08:20;1.50;64.10
2767;DHT22;1391;46.742;11.636;2022-12-18T12:11:01;1.60;64.20
2767;DHT22;1391;46.742;11.636;2022-12-18T12:13:43;1.30;64.80
2767;DHT22;1391;46.742;11.636;2022-12-18T12:16:31;1.10;64.90
2767;DHT22;1391;46.742;11.636;2022-12-18T12:19:15;1.10;65.50
2767;DHT22;1391;46.742;11.636;2022-12-18T12:21:54;1.10;67.00
2767;DHT22;1391;46.742;11.636;2022-12-18T12:24:33;1.10;67.70
2767;DHT22;1391;46.742;11.636;2022-12-18T12:27:16;0.50;67.70
2767;DHT22;1391;46.742;11.636;2022-12-18T12:29:59;0.60;68.40
2767;DHT22;1391;46.742;11.636;2022-12-18T12:32:42;0.60;69.00
2767;DHT22;1391;46.742;11.636;2022-12-18T12:35:25;0.60;70.20
2767;DHT22;1391;46.742;11.636;2022-12-18T12:38:07;0.30;71.60
2767;DHT22;1391;46.742;11.636;2022-12-18T12:40:42;-0.20;71.50
2767;DHT22;1391;46.742;11.636;2022-12-18T12:43:22;-0.50;70.10
2767;DHT22;1391;46.742;11.636;2022-12-18T12:45:55;-0.50;73.50
2767;DHT22;1391;46.742;11.636;2022-12-18T12:48:36;0.00;75.00
2767;DHT22;1391;46.742;11.636;2022-12-18T12:51:11;-0.20;75.60
2767;DHT22;1391;46.742;11.636;2022-12-18T12:53:42;-0.30;74.60
2767;DHT22;1391;46.742;11.636;2022-12-18T12:56:12;-0.10;74.60
2767;DHT22;1391;46.742;11.636;2022-12-18T12:58:46;-0.50;74.10
2767;DHT22;1391;46.742;11.636;2022-12-18T13:01:27;-0.50;74.40
2767;DHT22;1391;46.742;11.636;2022-12-18T13:04:05;-0.10;75.20
2767;DHT22;1391;46.742;11.636;2022-12-18T13:06:43;-0.30;75.70
2767;DHT22;1391;46.742;11.636;2022-12-18T13:09:13;0.00;76.60
2767;DHT22;1391;46.742;11.636;2022-12-18T13:11:41;0.10;77.10
2767;DHT22;1391;46.742;11.636;2022-12-18T13:14:30;-0.30;77.50
2767;DHT22;1391;46.742;11.636;2022-12-18T13:17:27;-0.50;75.90
2767;DHT22;1391;46.742;11.636;2022-12-18T13:20:08;-1.10;74.30
2767;DHT22;1391;46.742;11.636;2022-12-18T13:22:38;-1.00;75.70
2767;DHT22;1391;46.742;11.636;2022-12-18T13:25:27;-0.80;77.10
2767;DHT22;1391;46.742;11.636;2022-12-18T13:28:10;-0.60;79.00
2767;DHT22;1391;46.742;11.636;2022-12-18T13:30:52;-0.30;75.00
2767;DHT22;1391;46.742;11.636;2022-12-18T13:33:42;-0.50;72.30
2767;DHT22;1391;46.742;11.636;2022-12-18T13:36:26;-0.50;75.20
2767;DHT22;1391;46.742;11.636;2022-12-18T13:39:22;-0.40;77.20
2767;DHT22;1391;46.742;11.636;2022-12-18T13:41:52;-0.70;77.00
2767;DHT22;1391;46.742;11.636;2022-12-18T13:44:26;-0.80;78.80
2767;DHT22;1391;46.742;11.636;2022-12-18T13:47:00;-0.80;78.60
2767;DHT22;1391;46.742;11.636;2022-12-18T13:49:36;-0.80;78.80
2767;DHT22;1391;46.742;11.636;2022-12-18T13:52:16;-0.80;81.40
2767;DHT22;1391;46.742;11.636;2022-12-18T13:54:47;-0.90;82.40
2767;DHT22;1391;46.742;11.636;2022-12-18T13:57:27;-0.80;82.10
2767;DHT22;1391;46.742;11.636;2022-12-18T13:59:56;-1.20;81.40
2767;DHT22;1391;46.742;11.636;2022-12-18T14:02:28;-0.90;79.90
2767;DHT22;1391;46.742;11.636;2022-12-18T14:04:55;-1.10;75.50
2767;DHT22;1391;46.742;11.636;2022-12-18T14:07:24;-0.80;73.80
2767;DHT22;1391;46.742;11.636;2022-12-18T14:09:54;-1.30;72.30
2767;DHT22;1391;46.742;11.636;2022-12-18T14:12:25;-0.80;70.10
2767;DHT22;1391;46.742;11.636;2022-12-18T14:15:22;-1.10;69.20
2767;DHT22;1391;46.742;11.636;2022-12-18T14:17:55;-1.00;69.20
2767;DHT22;1391;46.742;11.636;2022-12-18T14:20:33;-1.10;68.40
2767;DHT22;1391;46.742;11.636;2022-12-18T14:23:01;-1.10;68.30
2767;DHT22;1391;46.742;11.636;2022-12-18T14:25:29;-1.00;68.30
2767;DHT22;1391;46.742;11.636;2022-12-18T14:28:14;-1.10;68.80
2767;DHT22;1391;46.742;11.636;2022-12-18T14:30:43;-1.10;70.20
2767;DHT22;1391;46.742;11.636;2022-12-18T14:33:14;-0.90;67.10
2767;DHT22;1391;46.742;11.636;2022-12-18T14:35:53;-0.90;69.20
2767;DHT22;1391;46.742;11.636;2022-12-18T14:38:27;-1.20;68.80
2767;DHT22;1391;46.742;11.636;2022-12-18T14:41:05;-1.40;70.10
2767;DHT22;1391;46.742;11.636;2022-12-18T14:43:35;-1.10;69.30
2767;DHT22;1391;46.742;11.636;2022-12-18T14:46:05;-1.30;69.90
2767;DHT22;1391;46.742;11.636;2022-12-18T14:48:37;-1.10;70.90
2767;DHT22;1391;46.742;11.636;2022-12-18T14:51:07;-1.30;70.60
2767;DHT22;1391;46.742;11.636;2022-12-18T14:53:48;-1.20;69.90
2767;DHT22;1391;46.742;11.636;2022-12-18T14:56:22;-0.80;69.10
2767;DHT22;1391;46.742;11.636;2022-12-18T14:58:52;-1.10;70.20
2767;DHT22;1391;46.742;11.636;2022-12-18T15:01:27;-1.10;73.10
2767;DHT22;1391;46.742;11.636;2022-12-18T15:03:59;-1.10;71.30
2767;DHT22;1391;46.742;11.636;2022-12-18T15:06:32;-1.30;69.60
2767;DHT22;1391;46.742;11.636;2022-12-18T15:09:03;-1.50;70.40
2767;DHT22;1391;46.742;11.636;2022-12-18T15:11:45;-1.40;69.40
2767;DHT22;1391;46.742;11.636;2022-12-18T15:14:23;-1.70;72.90
2767;DHT22;1391;46.742;11.636;2022-12-18T15:16:58;-1.40;74.40
2767;DHT22;1391;46.742;11.636;2022-12-18T15:19:33;-1.50;72.00
2767;DHT22;1391;46.742;11.636;2022-12-18T15:22:04;-1.60;74.60
2767;DHT22;1391;46.742;11.636;2022-12-18T15:24:33;-1.50;74.70
2767;DHT22;1391;46.742;11.636;2022-12-18T15:27:00;-1.40;74.40
2767;DHT22;1391;46.742;11.636;2022-12-18T15:29:28;-1.50;74.20
2767;DHT22;1391;46.742;11.636;2022-12-18T15:32:01;-1.40;75.10
2767;DHT22;1391;46.742;11.636;2022-12-18T15:34:31;-1.40;77.40
2767;DHT22;1391;46.742;11.636;2022-12-18T15:36:59;-1.40;79.30
2767;DHT22;1391;46.742;11.636;2022-12-18T15:39:27;-2.30;75.80
2767;DHT22;1391;46.742;11.636;2022-12-18T15:41:56;-2.90;76.50
2767;DHT22;1391;46.742;11.636;2022-12-18T15:44:40;-2.80;82.00
2767;DHT22;1391;46.742;11.636;2022-12-18T15:47:12;-2.40;84.30
2767;DHT22;1391;46.742;11.636;2022-12-18T15:49:41;-2.30;83.90
2767;DHT22;1391;46.742;11.636;2022-12-18T15:52:12;-2.40;85.50
2767;DHT22;1391;46.742;11.636;2022-12-18T15:54:51;-2.40;87.10
2767;DHT22;1391;46.742;11.636;2022-12-18T15:57:37;-1.80;88.40
2767;DHT22;1391;46.742;11.636;2022-12-18T16:00:05;-2.60;86.40
2767;DHT22;1391;46.742;11.636;2022-12-18T16:02:38;-2.40;88.70
2767;DHT22;1391;46.742;11.636;2022-12-18T16:05:14;-2.10;90.70
2767;DHT22;1391;46.742;11.636;2022-12-18T16:07:42;-2.10;91.00
2767;DHT22;1391;46.742;11.636;2022-12-18T16:10:10;-2.20;90.80
2767;DHT22;1391;46.742;11.636;2022-12-18T16:12:37;-2.90;90.00
2767;DHT22;1391;46.742;11.636;2022-12-18T16:15:06;-2.60;90.80
2767;DHT22;1391;46.742;11.636;2022-12-18T16:17:34;-2.70;90.30
2767;DHT22;1391;46.742;11.636;2022-12-18T16:20:02;-2.30;89.10
2767;DHT22;1391;46.742;11.636;2022-12-18T16:22:32;-2.70;90.20
2767;DHT22;1391;46.742;11.636;2022-12-18T16:24:59;-2.70;91.10
2767;DHT22;1391;46.742;11.636;2022-12-18T16:27:27;-2.60;91.10
2767;DHT22;1391;46.742;11.636;2022-12-18T16:29:54;-3.10;90.20
2767;DHT22;1391;46.742;11.636;2022-12-18T16:32:21;-3.30;90.30
2767;DHT22;1391;46.742;11.636;2022-12-18T16:34:49;-3.40;91.00
2767;DHT22;1391;46.742;11.636;2022-12-18T16:37:17;-3.40;91.40
2767;DHT22;1391;46.742;11.636;2022-12-18T16:39:46;-3.10;93.30
2767;DHT22;1391;46.742;11.636;2022-12-18T16:42:15;-3.30;92.60
2767;DHT22;1391;46.742;11.636;2022-12-18T16:44:45;-2.90;93.60
2767;DHT22;1391;46.742;11.636;2022-12-18T16:47:14;-2.90;94.20
2767;DHT22;1391;46.742;11.636;2022-12-18T16:49:42;-2.80;94.70
2767;DHT22;1391;46.742;11.636;2022-12-18T16:52:10;-2.40;94.80
2767;DHT22;1391;46.742;11.636;2022-12-18T16:54:38;-2.30;94.90
2767;DHT22;1391;46.742;11.636;2022-12-18T16:57:08;-2.90;92.30
2767;DHT22;1391;46.742;11.636;2022-12-18T16:59:36;-2.70;92.50
2767;DHT22;1391;46.742;11.636;2022-12-18T17:02:03;-2.80;92.70
2767;DHT22;1391;46.742;11.636;2022-12-18T17:04:35;-3.50;91.60
2767;DHT22;1391;46.742;11.636;2022-12-18T17:07:04;-3.40;92.50
2767;DHT22;1391;46.742;11.636;2022-12-18T17:09:31;-3.20;94.00
2767;DHT22;1391;46.742;11.636;2022-12-18T17:11:59;-3.10;94.80
2767;DHT22;1391;46.742;11.636;2022-12-18T17:14:28;-3.20;94.60
2767;DHT22;1391;46.742;11.636;2022-12-18T17:16:56;-3.80;92.20
2767;DHT22;1391;46.742;11.636;2022-12-18T17:19:25;-3.90;92.60
2767;DHT22;1391;46.742;11.636;2022-12-18T17:21:54;-4.10;94.10
2767;DHT22;1391;46.742;11.636;2022-12-18T17:24:22;-3.60;95.90
2767;DHT22;1391;46.742;11.636;2022-12-18T17:26:49;-3.40;96.80
2767;DHT22;1391;46.742;11.636;2022-12-18T17:29:18;-3.80;95.10
2767;DHT22;1391;46.742;11.636;2022-12-18T17:31:47;-3.40;95.10
2767;DHT22;1391;46.742;11.636;2022-12-18T17:34:14;-3.50;95.50
2767;DHT22;1391;46.742;11.636;2022-12-18T17:36:42;-3.60;96.60
2767;DHT22;1391;46.742;11.636;2022-12-18T17:39:16;-3.40;97.60
2767;DHT22;1391;46.742;11.636;2022-12-18T17:41:45;-3.80;98.60
2767;DHT22;1391;46.742;11.636;2022-12-18T17:44:13;-4.00;98.50
2767;DHT22;1391;46.742;11.636;2022-12-18T17:46:41;-4.10;96.80
2767;DHT22;1391;46.742;11.636;2022-12-18T17:49:11;-4.10;97.40
2767;DHT22;1391;46.742;11.636;2022-12-18T17:51:38;-4.30;98.00
2767;DHT22;1391;46.742;11.636;2022-12-18T17:54:10;-3.90;99.20
2767;DHT22;1391;46.742;11.636;2022-12-18T17:56:39;-3.70;99.50
2767;DHT22;1391;46.742;11.636;2022-12-18T17:59:06;-3.70;97.90
2767;DHT22;1391;46.742;11.636;2022-12-18T18:01:33;-4.00;96.80
2767;DHT22;1391;46.742;11.636;2022-12-18T18:04:02;-4.10;98.80
2767;DHT22;1391;46.742;11.636;2022-12-18T18:06:30;-4.10;98.90
2767;DHT22;1391;46.742;11.636;2022-12-18T18:08:58;-4.20;98.90
2767;DHT22;1391;46.742;11.636;2022-12-18T18:11:25;-4.10;99.90
2767;DHT22;1391;46.742;11.636;2022-12-18T18:14:13;-3.80;99.90
2767;DHT22;1391;46.742;11.636;2022-12-18T18:16:43;-4.10;99.10
2767;DHT22;1391;46.742;11.636;2022-12-18T18:19:13;-3.90;99.90
2767;DHT22;1391;46.742;11.636;2022-12-18T18:21:46;-4.30;99.90
2767;DHT22;1391;46.742;11.636;2022-12-18T18:24:16;-4.30;99.90
2767;DHT22;1391;46.742;11.636;2022-12-18T18:26:45;-3.90;99.90
2767;DHT22;1391;46.742;11.636;2022-12-18T18:29:14;-3.80;99.90
2767;DHT22;1391;46.742;11.636;2022-12-18T18:31:42;-4.00;99.90
2767;DHT22;1391;46.742;11.636;2022-12-18T18:34:13;-4.00;99.90
2767;DHT22;1391;46.742;11.636;2022-12-18T18:36:42;-4.30;99.90
2767;DHT22;1391;46.742;11.636;2022-12-18T18:39:11;-4.60;99.90
2767;DHT22;1391;46.742;11.636;2022-12-18T18:41:39;-4.60;99.90
2767;DHT22;1391;46.742;11.636;2022-12-18T18:44:06;-4.40;99.90
2767;DHT22;1391;46.742;11.636;2022-12-18T18:46:35;-4.20;99.90
2767;DHT22;1391;46.742;11.636;2022-12-18T18:49:02;-4.20;99.90
2767;DHT22;1391;46.742;11.636;2022-12-18T18:51:31;-4.20;99.90
2767;DHT22;1391;46.742;11.636;2022-12-18T18:54:00;-4.40;99.90
2767;DHT22;1391;46.742;11.636;2022-12-18T18:56:27;-4.50;99.90
2767;DHT22;1391;46.742;11.636;2022-12-18T18:58:56;-4.20;99.90
2767;DHT22;1391;46.742;11.636;2022-12-18T19:01:26;-4.20;99.90
2767;DHT22;1391;46.742;11.636;2022-12-18T19:03:53;-4.40;99.90
2767;DHT22;1391;46.742;11.636;2022-12-18T19:06:22;-4.40;99.90
2767;DHT22;1391;46.742;11.636;2022-12-18T19:08:51;-4.50;99.90
2767;DHT22;1391;46.742;11.636;2022-12-18T19:11:21;-4.80;99.20
2767;DHT22;1391;46.742;11.636;2022-12-18T19:14:08;-4.80;99.90
2767;DHT22;1391;46.742;11.636;2022-12-18T19:16:38;-4.50;99.90
2767;DHT22;1391;46.742;11.636;2022-12-18T19:19:05;-4.70;99.90
2767;DHT22;1391;46.742;11.636;2022-12-18T19:21:33;-4.90;99.90
2767;DHT22;1391;46.742;11.636;2022-12-18T19:24:04;-4.80;99.90
2767;DHT22;1391;46.742;11.636;2022-12-18T19:26:33;-5.10;99.90
2767;DHT22;1391;46.742;11.636;2022-12-18T19:29:01;-4.80;99.90
2767;DHT22;1391;46.742;11.636;2022-12-18T19:31:29;-4.30;99.90
2767;DHT22;1391;46.742;11.636;2022-12-18T19:33:58;-4.60;99.90
2767;DHT22;1391;46.742;11.636;2022-12-18T19:36:28;-4.70;99.90
2767;DHT22;1391;46.742;11.636;2022-12-18T19:38:58;-4.80;99.90
2767;DHT22;1391;46.742;11.636;2022-12-18T19:41:27;-4.30;99.90
2767;DHT22;1391;46.742;11.636;2022-12-18T19:43:56;-4.10;99.90
2767;DHT22;1391;46.742;11.636;2022-12-18T19:46:23;-4.30;99.90
2767;DHT22;1391;46.742;11.636;2022-12-18T19:48:51;-4.60;99.90
2767;DHT22;1391;46.742;11.636;2022-12-18T19:51:21;-4.30;99.90
2767;DHT22;1391;46.742;11.636;2022-12-18T19:53:50;-3.90;99.90
2767;DHT22;1391;46.742;11.636;2022-12-18T19:56:19;-4.00;99.90
2767;DHT22;1391;46.742;11.636;2022-12-18T19:58:47;-4.10;99.90
2767;DHT22;1391;46.742;11.636;2022-12-18T20:01:17;-4.40;99.90
2767;DHT22;1391;46.742;11.636;2022-12-18T20:03:45;-4.40;99.90
2767;DHT22;1391;46.742;11.636;2022-12-18T20:06:16;-4.50;99.90
2767;DHT22;1391;46.742;11.636;2022-12-18T20:08:45;-4.00;99.90
2767;DHT22;1391;46.742;11.636;2022-12-18T20:11:12;-4.20;99.90
2767;DHT22;1391;46.742;11.636;2022-12-18T20:13:40;-4.40;99.90
2767;DHT22;1391;46.742;11.636;2022-12-18T20:16:07;-4.50;99.90
2767;DHT22;1391;46.742;11.636;2022-12-18T20:18:37;-4.20;99.90
2767;DHT22;1391;46.742;11.636;2022-12-18T20:21:05;-4.20;99.90
2767;DHT22;1391;46.742;11.636;2022-12-18T20:23:32;-4.40;99.70
2767;DHT22;1391;46.742;11.636;2022-12-18T20:25:59;-4.50;98.70
2767;DHT22;1391;46.742;11.636;2022-12-18T20:28:27;-4.70;99.90
2767;DHT22;1391;46.742;11.636;2022-12-18T20:30:58;-4.70;99.20
2767;DHT22;1391;46.742;11.636;2022-12-18T20:33:27;-5.10;98.40
2767;DHT22;1391;46.742;11.636;2022-12-18T20:36:01;-4.50;99.90
2767;DHT22;1391;46.742;11.636;2022-12-18T20:38:31;-4.90;99.50
2767;DHT22;1391;46.742;11.636;2022-12-18T20:40:59;-4.60;99.90
2767;DHT22;1391;46.742;11.636;2022-12-18T20:43:27;-4.60;99.90
2767;DHT22;1391;46.742;11.636;2022-12-18T20:46:00;-4.60;99.90
2767;DHT22;1391;46.742;11.636;2022-12-18T20:48:28;-4.60;99.90
2767;DHT22;1391;46.742;11.636;2022-12-18T20:51:01;-4.70;99.90
2767;DHT22;1391;46.742;11.636;2022-12-18T20:53:30;-4.70;99.90
2767;DHT22;1391;46.742;11.636;2022-12-18T20:55:57;-4.80;99.90
2767;DHT22;1391;46.742;11.636;2022-12-18T20:58:26;-4.50;99.90
2767;DHT22;1391;46.742;11.636;2022-12-18T21:01:02;-4.80;99.90
2767;DHT22;1391;46.742;11.636;2022-12-18T21:03:30;-4.20;99.90
2767;DHT22;1391;46.742;11.636;2022-12-18T21:06:02;-4.40;99.90
2767;DHT22;1391;46.742;11.636;2022-12-18T21:08:30;-4.70;99.90
2767;DHT22;1391;46.742;11.636;2022-12-18T21:11:11;-4.20;99.90
2767;DHT22;1391;46.742;11.636;2022-12-18T21:14:00;-4.30;99.90
2767;DHT22;1391;46.742;11.636;2022-12-18T21:16:27;-4.60;99.90
2767;DHT22;1391;46.742;11.636;2022-12-18T21:18:55;-4.50;99.90
2767;DHT22;1391;46.742;11.636;2022-12-18T21:21:26;-4.80;99.90
2767;DHT22;1391;46.742;11.636;2022-12-18T21:23:54;-4.30;99.90
2767;DHT22;1391;46.742;11.636;2022-12-18T21:26:23;-4.60;99.90
2767;DHT22;1391;46.742;11.636;2022-12-18T21:28:52;-4.40;99.90
2767;DHT22;1391;46.742;11.636;2022-12-18T21:31:20;-4.30;99.90
2767;DHT22;1391;46.742;11.636;2022-12-18T21:33:48;-4.00;99.90
2767;DHT22;1391;46.742;11.636;2022-12-18T21:36:16;-4.20;99.90
2767;DHT22;1391;46.742;11.636;2022-12-18T21:38:45;-4.20;99.90
2767;DHT22;1391;46.742;11.636;2022-12-18T21:41:12;-4.20;99.90
2767;DHT22;1391;46.742;11.636;2022-12-18T21:44:00;-4.20;99.90